Details From HEPS - Port Said
To HETR - El Tor
Flight Number -
Tags Generated
Created
Modified
Stats Distance 198 nm / 367 km
Max Altitude 0 ft / 0 m
Waypoints 2
Social Downloads 5
Likes 0
Share VATSIM

Download

Looking for another format? Having issues loading an existing format? Contact us
Advertisement - Login to hide

Notes

Generated

Route

HEPS HETR

ID Type Via Altitude Latitude Longitude Leg Dist Tot Dist Heading (true) Name
O HEPS APT - 0 ft / 0 m 31.28228˚ 32.22819˚ - 0 nm - -
O HETR APT - 0 ft / 0 m 28.21230˚ 33.63069˚ 198 nm 198 nm 158° / 159° -

Altitude Profile

Advertisement - Login to hide

Weather


0- 5 10 15 20 25 30 35+ Temperature / ° C

Clouds and Precipitation
Forecast for 2017-12-18 18:00 UTC. Updated 2 hours ago

Ground ~20,000 ft ~40,000 ft Winds

HEPS

Details ICAO HEPS (PSD)
Name PORT SAID
Region Egypt
Timezone Africa/Cairo (UTC+2.0)
Stats Elevation 8 ft / 2 m (AMSL)
Location 31.279393° 32.240063°
Runways 1
Magnetic Variation 4.544° E

METAR

HEPS 181800Z 30002KT 4000 HZ NSC 19/15 Q1019 NOSIG

Decode

TAF

TAF AMD HEPS 181320Z 1814/1918 30005KT 6000 SCT030 TEMPO 1814/1817 2000 HZ

Decode

Departure Runways

ID Width Length Bearing (true) Bearing (mag) Surface Threshold Offset Overrun Length
10 148 ft / 45 m 7,697 ft / 2,346 m 105.87° 101.33° Asphalt 0 ft / 0 m 200 ft / 61 m
28 148 ft / 45 m 7,697 ft / 2,346 m 285.88° 281.34° Asphalt 0 ft / 0 m 200 ft / 61 m

HETR

Details ICAO HETR (ELT)
Name EL TOR
Region Egypt
Timezone Africa/Cairo (UTC+2.0)
Stats Elevation 115 ft / 35 m (AMSL)
Location 28.208982° 33.645505°
Runways 1
Magnetic Variation 4.299° E

METAR

HETR 181900Z 07006KT CAVOK 19/15 Q1018

Decode

TAF

Not found

Destination Runways

ID Width Length Bearing (true) Bearing (mag) Surface Threshold Offset Overrun Length
10 148 ft / 45 m 9,831 ft / 2,996 m 104.27° 99.97° Asphalt 0 ft / 0 m 210 ft / 64 m
28 148 ft / 45 m 9,831 ft / 2,996 m 284.28° 279.98° Asphalt 0 ft / 0 m 210 ft / 64 m

Popular Alternatives